createdAt,value
2017-10-12T00:02:03.037Z,75.18
2017-10-12T00:04:30.890Z,75.10
2017-10-12T00:06:58.344Z,75.08
2017-10-12T00:09:25.724Z,75.11
2017-10-12T00:11:53.191Z,75.07
2017-10-12T00:14:20.911Z,75.29
2017-10-12T00:16:48.324Z,75.58
2017-10-12T00:19:15.724Z,75.64
2017-10-12T00:21:43.160Z,75.73
2017-10-12T00:24:10.580Z,75.52
2017-10-12T00:26:37.985Z,75.65
2017-10-12T00:29:05.418Z,75.99
2017-10-12T00:31:32.807Z,75.91
2017-10-12T00:34:00.237Z,75.78
2017-10-12T00:36:27.628Z,76.31
2017-10-12T00:38:55.044Z,76.79
2017-10-12T00:41:22.447Z,77.16
2017-10-12T00:43:49.905Z,77.26
2017-10-12T00:46:17.300Z,77.42
2017-10-12T00:48:44.715Z,77.48
2017-10-12T00:51:12.143Z,77.21
2017-10-12T00:53:39.582Z,77.14
2017-10-12T00:56:07.039Z,77.15
2017-10-12T00:58:34.443Z,77.04
2017-10-12T01:01:01.909Z,76.98
2017-10-12T01:03:29.320Z,77.55
2017-10-12T01:05:56.747Z,77.64
2017-10-12T01:08:24.139Z,77.83
2017-10-12T01:10:51.579Z,78.11
2017-10-12T01:13:18.987Z,78.16
2017-10-12T01:15:46.393Z,78.46
2017-10-12T01:18:13.960Z,78.38
2017-10-12T01:20:41.375Z,78.44
2017-10-12T01:23:08.809Z,78.34
2017-10-12T01:25:36.206Z,78.34
2017-10-12T01:28:03.623Z,78.23
2017-10-12T01:30:31.019Z,78.38
2017-10-12T01:32:58.456Z,78.26
2017-10-12T01:35:25.856Z,78.24
2017-10-12T01:37:53.262Z,78.72
2017-10-12T01:40:20.730Z,79.02
2017-10-12T01:42:48.129Z,79.14
2017-10-12T01:45:15.555Z,79.03
2017-10-12T01:47:42.967Z,78.71
2017-10-12T01:50:10.400Z,78.24
2017-10-12T01:52:37.809Z,77.95
2017-10-12T01:55:05.226Z,77.65
2017-10-12T01:57:32.631Z,77.58
2017-10-12T02:00:00.068Z,77.57
2017-10-12T02:02:27.501Z,77.95
2017-10-12T02:04:55.032Z,78.07
2017-10-12T02:07:22.430Z,77.97
2017-10-12T02:09:49.863Z,77.98
2017-10-12T02:12:17.308Z,78.28
2017-10-12T02:14:44.701Z,78.26
2017-10-12T02:17:12.136Z,78.23
2017-10-12T02:19:39.533Z,78.00
2017-10-12T02:22:06.969Z,77.54
2017-10-12T02:24:34.383Z,77.08
2017-10-12T02:27:01.807Z,76.63
2017-10-12T02:29:29.212Z,76.14
2017-10-12T02:31:56.621Z,75.90
2017-10-12T02:34:24.015Z,75.94
2017-10-12T02:36:51.452Z,75.53
2017-10-12T02:39:18.869Z,75.76
2017-10-12T02:41:46.288Z,75.95
2017-10-12T02:44:13.724Z,75.38
2017-10-12T02:46:41.133Z,75.27
2017-10-12T02:49:08.555Z,75.14
2017-10-12T02:51:35.944Z,75.07
2017-10-12T02:54:03.380Z,74.94
2017-10-12T02:56:30.768Z,74.86
2017-10-12T02:58:58.236Z,74.92
2017-10-12T03:01:25.630Z,75.02
2017-10-12T03:03:53.067Z,74.95
2017-10-12T03:06:20.460Z,74.81
2017-10-12T03:08:47.885Z,74.73
2017-10-12T03:11:15.267Z,74.65
2017-10-12T03:13:42.702Z,74.70
2017-10-12T03:16:10.119Z,74.63
2017-10-12T03:18:37.510Z,74.54
2017-10-12T03:21:04.927Z,74.29
2017-10-12T03:23:32.332Z,74.25
2017-10-12T03:25:59.751Z,74.46
2017-10-12T03:28:27.146Z,74.28
2017-10-12T03:30:54.581Z,74.29
2017-10-12T03:33:21.966Z,74.38
2017-10-12T03:35:49.421Z,74.59
2017-10-12T03:38:16.820Z,74.72
2017-10-12T03:40:44.231Z,74.78
2017-10-12T03:43:11.619Z,74.77
2017-10-12T03:45:39.039Z,74.92
2017-10-12T03:48:06.472Z,74.82
2017-10-12T03:50:33.877Z,74.64
2017-10-12T03:53:01.312Z,74.64
2017-10-12T03:55:28.695Z,74.55
2017-10-12T03:57:56.115Z,74.33
2017-10-12T04:00:23.515Z,74.31
2017-10-12T04:02:50.938Z,74.45
2017-10-12T04:05:18.362Z,74.42
2017-10-12T04:07:45.771Z,74.56
2017-10-12T04:10:13.199Z,74.46
2017-10-12T04:12:40.664Z,74.30
2017-10-12T04:15:08.056Z,74.23
2017-10-12T04:17:35.468Z,74.37
2017-10-12T04:20:02.888Z,74.41
2017-10-12T04:22:30.324Z,74.47
2017-10-12T04:24:57.731Z,74.53
2017-10-12T04:27:25.136Z,74.65
2017-10-12T04:29:52.575Z,74.87
2017-10-12T04:32:20.005Z,74.77
2017-10-12T04:34:47.435Z,74.83
2017-10-12T04:37:14.815Z,74.90
2017-10-12T04:39:42.248Z,75.15
2017-10-12T04:42:09.639Z,75.24
2017-10-12T04:44:37.059Z,75.50
2017-10-12T04:47:04.451Z,75.88
2017-10-12T04:49:31.883Z,75.86
2017-10-12T04:51:59.314Z,75.81
2017-10-12T04:54:26.723Z,75.84
2017-10-12T04:56:54.164Z,76.06
2017-10-12T04:59:21.572Z,76.01
2017-10-12T05:01:49.011Z,76.06
2017-10-12T05:04:16.438Z,76.04
2017-10-12T05:06:43.867Z,75.97
2017-10-12T05:09:11.250Z,75.97
2017-10-12T05:11:38.712Z,76.21
2017-10-12T05:14:06.111Z,76.40
2017-10-12T05:16:33.594Z,76.67
2017-10-12T05:19:01.015Z,76.90
2017-10-12T05:21:28.420Z,76.85
2017-10-12T05:23:55.864Z,76.90
2017-10-12T05:26:23.256Z,76.98
2017-10-12T05:28:50.673Z,76.85
2017-10-12T05:31:18.090Z,76.74
2017-10-12T05:33:45.601Z,76.66
2017-10-12T05:36:15.484Z,76.71
2017-10-12T05:38:44.380Z,76.85
2017-10-12T05:41:11.772Z,77.18
2017-10-12T05:43:39.220Z,77.46
2017-10-12T05:46:06.607Z,77.47
2017-10-12T05:48:34.013Z,77.34
2017-10-12T05:51:01.451Z,77.06
2017-10-12T05:53:28.920Z,77.10
2017-10-12T05:55:56.327Z,77.14
2017-10-12T05:58:23.745Z,76.99
2017-10-12T06:00:51.164Z,76.86
2017-10-12T06:03:18.555Z,76.92
2017-10-12T06:05:45.983Z,76.92
2017-10-12T06:08:13.412Z,76.80
2017-10-12T06:10:40.884Z,76.67
2017-10-12T06:13:08.271Z,76.53
2017-10-12T06:15:35.723Z,76.62
2017-10-12T06:18:03.911Z,76.74
2017-10-12T06:20:31.328Z,76.84
2017-10-12T06:22:58.811Z,77.12
2017-10-12T06:25:26.215Z,77.01
2017-10-12T06:27:53.648Z,76.94
2017-10-12T06:30:22.530Z,76.63
2017-10-12T06:32:49.944Z,76.76
2017-10-12T06:35:17.348Z,76.94
2017-10-12T06:37:44.780Z,76.88
2017-10-12T06:40:12.196Z,76.92
2017-10-12T06:42:39.630Z,76.83
2017-10-12T06:45:07.074Z,77.09
2017-10-12T06:47:34.499Z,76.91
2017-10-12T06:50:01.952Z,77.00
2017-10-12T06:52:29.349Z,76.90
2017-10-12T06:54:56.763Z,76.92
2017-10-12T06:57:24.152Z,76.88
2017-10-12T06:59:51.587Z,77.16
2017-10-12T07:02:18.985Z,77.44
2017-10-12T07:04:46.403Z,78.44
2017-10-12T07:07:13.792Z,79.26
2017-10-12T07:09:41.342Z,80.34
2017-10-12T07:12:08.781Z,81.15
2017-10-12T07:14:36.180Z,81.16
2017-10-12T07:17:03.632Z,81.18
2017-10-12T07:19:31.572Z,81.19
2017-10-12T07:21:58.988Z,81.44
2017-10-12T07:24:27.202Z,81.36
2017-10-12T07:26:54.599Z,81.39
2017-10-12T07:29:22.019Z,81.20
2017-10-12T07:31:49.480Z,81.24
2017-10-12T07:34:16.926Z,81.25
2017-10-12T07:36:44.340Z,81.12
2017-10-12T07:39:12.096Z,81.29
2017-10-12T07:41:39.482Z,81.18
2017-10-12T07:44:06.927Z,81.08
2017-10-12T07:46:34.322Z,81.17
2017-10-12T07:49:02.730Z,80.85
2017-10-12T07:51:30.150Z,80.88
2017-10-12T07:53:57.604Z,81.05
2017-10-12T07:56:25.027Z,80.84
2017-10-12T07:58:52.430Z,80.79
2017-10-12T08:01:19.872Z,80.69
2017-10-12T08:03:47.289Z,80.75
2017-10-12T08:06:14.769Z,81.04
2017-10-12T08:08:42.188Z,80.96
2017-10-12T08:11:09.648Z,80.68
2017-10-12T08:13:37.044Z,80.58
2017-10-12T08:16:04.491Z,80.93
2017-10-12T08:18:31.884Z,81.26
2017-10-12T08:20:59.324Z,80.75
2017-10-12T08:23:26.765Z,80.60
2017-10-12T08:25:54.247Z,80.46
2017-10-12T08:28:21.724Z,80.22
2017-10-12T08:30:49.167Z,79.60
2017-10-12T08:33:16.596Z,79.75
2017-10-12T08:35:44.039Z,79.32
2017-10-12T08:38:11.495Z,79.11
2017-10-12T08:40:38.884Z,78.47
2017-10-12T08:43:06.352Z,78.13
2017-10-12T08:45:33.764Z,77.81
2017-10-12T08:48:01.229Z,77.33
2017-10-12T08:50:28.635Z,76.65
2017-10-12T08:52:56.176Z,76.30
2017-10-12T08:55:23.556Z,75.83
2017-10-12T08:57:50.976Z,75.92
2017-10-12T09:00:18.371Z,74.67
2017-10-12T09:02:45.812Z,74.45
2017-10-12T09:05:13.231Z,73.00
2017-10-12T09:07:40.651Z,72.93
2017-10-12T09:10:08.091Z,73.71
2017-10-12T09:12:48.594Z,73.76
2017-10-12T09:15:16.083Z,73.88
2017-10-12T09:17:43.472Z,73.42
2017-10-12T09:20:10.928Z,73.92
2017-10-12T09:22:38.344Z,74.19
2017-10-12T09:25:05.801Z,73.87
2017-10-12T09:27:33.212Z,73.98
2017-10-12T09:30:00.624Z,73.73
2017-10-12T09:32:28.122Z,73.89
2017-10-12T09:34:55.607Z,73.70
2017-10-12T09:37:23.246Z,73.89
2017-10-12T09:39:50.808Z,73.37
2017-10-12T09:42:20.952Z,73.49
2017-10-12T09:44:48.368Z,73.00
2017-10-12T09:47:15.840Z,72.42
2017-10-12T09:49:43.274Z,72.17
2017-10-12T09:52:12.528Z,72.16
2017-10-12T09:54:40.037Z,71.79
2017-10-12T09:57:07.500Z,70.95
2017-10-12T09:59:34.917Z,70.90
2017-10-12T10:02:02.653Z,70.28
2017-10-12T10:04:30.189Z,70.25
2017-10-12T10:06:57.615Z,69.48
2017-10-12T10:09:25.041Z,68.57
2017-10-12T10:11:52.638Z,68.51
2017-10-12T10:14:20.057Z,69.06
2017-10-12T10:16:47.445Z,69.37
2017-10-12T10:19:14.885Z,68.79
2017-10-12T10:21:42.297Z,68.76
2017-10-12T10:24:09.766Z,68.83
2017-10-12T10:26:37.183Z,68.65
2017-10-12T10:29:04.613Z,68.84
2017-10-12T10:31:32.007Z,68.91
2017-10-12T10:36:36.264Z,68.17
2017-10-12T10:39:03.712Z,68.10
2017-10-12T10:41:31.156Z,67.91
2017-10-12T10:43:58.549Z,67.49
2017-10-12T10:46:25.995Z,68.07
2017-10-12T10:48:53.409Z,67.87
2017-10-12T10:51:20.844Z,67.81
2017-10-12T10:53:48.252Z,68.00
2017-10-12T10:56:15.671Z,67.34
2017-10-12T10:58:43.104Z,67.46
2017-10-12T11:01:10.527Z,67.79
2017-10-12T11:03:37.935Z,67.83
2017-10-12T11:06:05.358Z,68.39
2017-10-12T11:08:32.751Z,68.63
2017-10-12T11:11:00.220Z,68.68
2017-10-12T11:13:27.607Z,69.30
2017-10-12T11:15:55.033Z,70.09
2017-10-12T11:18:22.453Z,70.64
2017-10-12T11:20:49.886Z,70.09
2017-10-12T11:23:17.329Z,70.27
2017-10-12T11:25:44.722Z,69.73
2017-10-12T11:28:12.972Z,69.36
2017-10-12T11:30:40.426Z,68.61
2017-10-12T11:33:07.812Z,68.00
2017-10-12T11:35:35.256Z,67.26
2017-10-12T11:38:03.290Z,66.88
2017-10-12T11:40:30.704Z,66.75
2017-10-12T11:42:58.112Z,66.77
2017-10-12T11:45:25.584Z,66.45
2017-10-12T11:47:53.010Z,66.87
2017-10-12T11:50:20.428Z,67.02
2017-10-12T11:52:47.843Z,67.36
2017-10-12T11:55:15.416Z,67.89
2017-10-12T11:57:42.871Z,68.28
2017-10-12T12:00:10.271Z,68.41
2017-10-12T12:02:37.757Z,68.56
2017-10-12T12:05:05.238Z,68.52
2017-10-12T12:07:32.704Z,68.54
2017-10-12T12:10:00.182Z,68.72
2017-10-12T12:12:27.656Z,68.92
2017-10-12T12:14:55.052Z,69.17
2017-10-12T12:17:22.499Z,69.08
2017-10-12T12:19:49.926Z,68.90
2017-10-12T12:22:17.363Z,68.77
2017-10-12T12:24:44.790Z,68.33
2017-10-12T12:27:13.030Z,68.24
2017-10-12T12:29:40.467Z,67.13
2017-10-12T12:32:07.920Z,66.57
2017-10-12T12:34:35.338Z,66.20
2017-10-12T12:37:02.773Z,66.05
2017-10-12T12:39:30.264Z,66.06
2017-10-12T12:41:57.691Z,66.33
2017-10-12T12:44:25.140Z,66.27
2017-10-12T12:46:52.570Z,66.11
2017-10-12T12:49:20.110Z,65.91
2017-10-12T12:51:47.526Z,66.59
2017-10-12T12:54:15.426Z,67.11
2017-10-12T12:56:42.860Z,67.03
2017-10-12T12:59:10.293Z,66.16
2017-10-12T13:01:37.702Z,66.05
2017-10-12T13:04:05.162Z,66.19
2017-10-12T13:06:32.613Z,66.47
2017-10-12T13:09:00.045Z,66.36
2017-10-12T13:11:27.488Z,66.49
2017-10-12T13:13:54.930Z,66.17
2017-10-12T13:16:22.372Z,66.06
2017-10-12T13:18:49.824Z,65.83
2017-10-12T13:21:17.302Z,65.60
2017-10-12T13:23:44.789Z,65.00
2017-10-12T13:26:12.286Z,65.21
2017-10-12T13:28:39.774Z,64.71
2017-10-12T13:31:07.205Z,63.58
2017-10-12T13:33:34.627Z,62.78
2017-10-12T13:36:02.111Z,62.18
2017-10-12T13:38:29.511Z,62.88
2017-10-12T13:40:56.980Z,62.25
2017-10-12T13:43:24.439Z,61.33
2017-10-12T13:45:51.924Z,60.29
2017-10-12T13:48:19.502Z,60.66
2017-10-12T13:50:49.390Z,60.12
2017-10-12T13:53:16.990Z,60.23
2017-10-12T13:55:44.692Z,60.27
2017-10-12T13:58:12.257Z,60.99
2017-10-12T14:01:09.943Z,61.14
2017-10-12T14:03:37.532Z,60.56
2017-10-12T14:06:06.160Z,60.24
2017-10-12T14:08:33.590Z,59.81
2017-10-12T14:11:00.979Z,59.69
2017-10-12T14:13:28.427Z,58.27
2017-10-12T14:15:55.866Z,57.44
2017-10-12T14:18:24.171Z,56.86
2017-10-12T14:20:51.592Z,57.28
2017-10-12T14:23:19.013Z,56.14
2017-10-12T14:25:46.455Z,56.25
2017-10-12T14:28:13.839Z,55.72
2017-10-12T14:30:41.316Z,55.41
2017-10-12T14:33:08.720Z,55.65
2017-10-12T14:35:36.164Z,56.23
2017-10-12T14:38:03.552Z,56.37
2017-10-12T14:40:30.996Z,57.01
2017-10-12T14:42:58.408Z,56.91
2017-10-12T14:45:27.277Z,57.09
2017-10-12T14:47:54.669Z,57.53
2017-10-12T14:50:22.101Z,57.54
2017-10-12T14:52:49.521Z,57.81
2017-10-12T14:55:16.959Z,58.01
2017-10-12T14:57:44.380Z,58.38
2017-10-12T15:00:12.596Z,59.16
2017-10-12T15:02:40.037Z,59.58
2017-10-12T15:05:07.454Z,59.82
2017-10-12T15:07:34.876Z,59.97
2017-10-12T15:10:02.388Z,60.13
2017-10-12T15:12:29.829Z,60.06
2017-10-12T15:14:57.239Z,59.99
2017-10-12T15:17:24.867Z,59.98
2017-10-12T15:19:52.265Z,60.38
2017-10-12T15:22:19.725Z,60.06
2017-10-12T15:24:47.884Z,60.36
2017-10-12T15:27:15.297Z,60.56
2017-10-12T15:29:42.708Z,60.21
2017-10-12T15:32:10.219Z,60.40
2017-10-12T15:34:37.660Z,60.44
2017-10-12T15:37:05.060Z,60.37
2017-10-12T15:39:32.503Z,60.53
2017-10-12T15:42:00.763Z,60.83
2017-10-12T15:44:28.204Z,60.80
2017-10-12T15:46:55.628Z,60.51
2017-10-12T15:49:23.054Z,61.14
2017-10-12T15:51:50.992Z,61.45
2017-10-12T15:54:18.932Z,61.37
2017-10-12T15:56:46.369Z,61.36
2017-10-12T15:59:13.762Z,61.47
2017-10-12T16:01:41.172Z,61.61
2017-10-12T16:04:08.584Z,61.74
2017-10-12T16:06:36.074Z,62.03
2017-10-12T16:09:03.481Z,62.10
2017-10-12T16:11:31.635Z,62.32
2017-10-12T16:13:59.039Z,62.49
2017-10-12T16:16:26.511Z,62.61
2017-10-12T16:18:53.903Z,62.56
2017-10-12T16:21:21.303Z,62.75
2017-10-12T16:23:48.752Z,63.03
2017-10-12T16:26:16.133Z,63.34
2017-10-12T16:28:43.548Z,63.33
2017-10-12T16:31:10.940Z,63.65
2017-10-12T16:33:38.365Z,63.73
2017-10-12T16:36:05.760Z,64.17
2017-10-12T16:38:33.193Z,64.53
2017-10-12T16:41:00.608Z,64.54
2017-10-12T16:43:28.062Z,64.50
2017-10-12T16:45:55.467Z,64.70
2017-10-12T16:48:22.915Z,64.99
2017-10-12T16:53:17.724Z,65.35
2017-10-12T16:55:45.149Z,65.62
2017-10-12T16:58:12.541Z,65.73
2017-10-12T17:00:40.524Z,65.94
2017-10-12T17:03:07.912Z,66.22
2017-10-12T17:05:35.406Z,66.31
2017-10-12T17:08:02.869Z,66.26
2017-10-12T17:10:30.284Z,66.41
2017-10-12T17:12:57.725Z,66.76
2017-10-12T17:15:25.141Z,66.73
2017-10-12T17:17:52.618Z,66.80
2017-10-12T17:20:20.106Z,66.73
2017-10-12T17:22:47.622Z,66.88
2017-10-12T17:25:15.155Z,67.35
2017-10-12T17:27:42.720Z,67.42
2017-10-12T17:30:10.273Z,67.70
2017-10-12T17:32:37.833Z,67.91
2017-10-12T17:35:05.480Z,68.24
2017-10-12T17:37:33.176Z,68.52
2017-10-12T17:40:00.879Z,68.65
2017-10-12T17:42:28.458Z,68.74
2017-10-12T17:44:56.127Z,68.82
2017-10-12T17:47:23.806Z,68.83
2017-10-12T17:49:51.485Z,68.90
2017-10-12T17:52:19.156Z,69.08
2017-10-12T17:54:46.808Z,69.28
2017-10-12T17:57:14.511Z,69.75
2017-10-12T17:59:42.227Z,69.91
2017-10-12T18:02:09.895Z,69.94
2017-10-12T18:07:05.468Z,70.22
2017-10-12T18:09:32.996Z,70.04
2017-10-12T18:12:30.517Z,70.01
2017-10-12T18:14:28.314Z,70.26
2017-10-12T18:16:55.846Z,70.65
2017-10-12T18:19:23.399Z,70.80
2017-10-12T18:21:50.898Z,70.66
2017-10-12T18:24:18.534Z,70.41
2017-10-12T18:26:46.207Z,70.60
2017-10-12T18:29:13.856Z,70.89
2017-10-12T18:31:41.493Z,71.01
2017-10-12T18:34:09.055Z,71.42
2017-10-12T18:36:36.530Z,71.66
2017-10-12T18:39:03.988Z,71.87
2017-10-12T18:41:31.459Z,72.18
2017-10-12T18:43:58.926Z,72.23
2017-10-12T18:46:26.386Z,72.37
2017-10-12T18:48:53.897Z,72.12
2017-10-12T18:51:21.346Z,71.94
2017-10-12T18:53:48.803Z,71.83
2017-10-12T18:56:16.212Z,71.81
2017-10-12T18:58:43.637Z,71.86
2017-10-12T19:01:11.069Z,71.97
2017-10-12T19:03:38.506Z,72.27
2017-10-12T19:06:05.941Z,72.23
2017-10-12T19:08:33.398Z,72.53
2017-10-12T19:11:00.796Z,72.37
2017-10-12T19:13:28.208Z,72.57
2017-10-12T19:15:55.669Z,73.17
2017-10-12T19:18:23.059Z,73.27
2017-10-12T19:20:50.515Z,73.34
2017-10-12T19:23:19.239Z,73.31
2017-10-12T19:25:46.698Z,73.56
2017-10-12T19:28:43.557Z,73.72
2017-10-12T19:30:41.541Z,73.73
2017-10-12T19:33:09.009Z,73.99
2017-10-12T19:35:36.387Z,74.42
2017-10-12T19:38:03.784Z,74.24
2017-10-12T19:40:31.226Z,74.26
2017-10-12T19:42:58.610Z,74.17
2017-10-12T19:45:26.026Z,74.25
2017-10-12T19:47:53.416Z,74.08
2017-10-12T19:50:20.845Z,74.11
2017-10-12T19:52:48.260Z,74.18
2017-10-12T19:55:16.464Z,74.05
2017-10-12T19:57:43.888Z,74.08
2017-10-12T20:00:11.313Z,74.18
2017-10-12T20:02:38.724Z,74.20
2017-10-12T20:05:07.570Z,74.21
2017-10-12T20:07:35.001Z,74.15
2017-10-12T20:10:02.461Z,74.18
2017-10-12T20:12:29.931Z,74.35
2017-10-12T20:14:58.108Z,74.46
2017-10-12T20:17:25.492Z,74.56
2017-10-12T20:19:53.893Z,74.67
2017-10-12T20:22:22.104Z,74.84
2017-10-12T20:24:49.586Z,74.95
2017-10-12T20:27:16.996Z,74.79
2017-10-12T20:29:44.767Z,74.94
2017-10-12T20:32:12.163Z,75.55
2017-10-12T20:34:39.613Z,75.34
2017-10-12T20:37:07.028Z,75.34
2017-10-12T20:39:34.492Z,75.68
2017-10-12T20:42:16.886Z,75.83
2017-10-12T20:44:29.349Z,75.77
2017-10-12T20:49:24.323Z,75.91
2017-10-12T20:51:51.783Z,75.76
2017-10-12T20:54:19.216Z,75.41
2017-10-12T20:56:46.616Z,75.57
2017-10-12T20:59:14.147Z,75.47
2017-10-12T21:01:41.585Z,75.45
2017-10-12T21:04:09.017Z,75.55
2017-10-12T21:06:36.461Z,75.63
2017-10-12T21:09:03.884Z,75.66
2017-10-12T21:11:31.287Z,75.56
2017-10-12T21:13:58.730Z,76.03
2017-10-12T21:16:26.899Z,76.39
2017-10-12T21:18:54.323Z,76.62
2017-10-12T21:21:21.731Z,76.69
2017-10-12T21:23:49.213Z,76.58
2017-10-12T21:26:16.637Z,76.48
2017-10-12T21:28:44.038Z,76.18
2017-10-12T21:31:11.457Z,75.95
2017-10-12T21:33:38.855Z,75.86
2017-10-12T21:36:06.275Z,75.85
2017-10-12T21:38:33.685Z,75.77
2017-10-12T21:41:01.159Z,75.82
2017-10-12T21:43:28.578Z,75.89
2017-10-12T21:45:55.992Z,76.22
2017-10-12T21:48:23.728Z,76.36
2017-10-12T21:50:51.168Z,76.40
2017-10-12T21:53:18.577Z,76.59
2017-10-12T21:55:46.015Z,76.89
2017-10-12T21:58:13.439Z,77.08
2017-10-12T22:00:40.859Z,77.11
2017-10-12T22:03:08.288Z,77.02
2017-10-12T22:05:35.707Z,77.08
2017-10-12T22:08:03.115Z,77.50
2017-10-12T22:10:30.543Z,77.69
2017-10-12T22:12:57.961Z,77.82
2017-10-12T22:15:25.368Z,77.97
2017-10-12T22:17:52.801Z,78.04
2017-10-12T22:20:20.223Z,77.95
2017-10-12T22:22:47.654Z,77.92
2017-10-12T22:25:15.052Z,77.88
2017-10-12T22:27:42.472Z,77.89
2017-10-12T22:30:09.931Z,78.07
2017-10-12T22:32:37.383Z,77.90
2017-10-12T22:35:04.792Z,77.92
2017-10-12T22:37:32.205Z,77.84
2017-10-12T22:39:59.631Z,77.66
2017-10-12T22:42:27.052Z,77.85
2017-10-12T22:44:55.075Z,77.94
2017-10-12T22:47:22.464Z,77.90
2017-10-12T22:49:49.920Z,78.12
2017-10-12T22:52:17.351Z,77.96
2017-10-12T22:54:44.800Z,77.73
2017-10-12T22:57:12.188Z,78.10
2017-10-12T22:59:39.615Z,78.39
2017-10-12T23:02:07.020Z,78.32
2017-10-12T23:04:34.455Z,78.60
2017-10-12T23:07:01.869Z,78.67
2017-10-12T23:09:29.280Z,78.52
2017-10-12T23:11:56.700Z,78.81
2017-10-12T23:14:24.123Z,78.74
2017-10-12T23:16:51.533Z,78.86
2017-10-12T23:19:19.027Z,78.91
2017-10-12T23:21:46.459Z,78.94
2017-10-12T23:24:13.888Z,79.03
2017-10-12T23:26:41.324Z,78.97
2017-10-12T23:29:08.716Z,78.91
2017-10-12T23:31:36.144Z,79.14
2017-10-12T23:34:03.554Z,78.99
2017-10-12T23:36:30.986Z,79.28
2017-10-12T23:38:58.395Z,79.32
2017-10-12T23:41:25.799Z,79.51
2017-10-12T23:43:53.252Z,79.70
2017-10-12T23:46:20.640Z,79.90
2017-10-12T23:48:48.070Z,80.05
2017-10-12T23:51:15.513Z,80.24
2017-10-12T23:53:42.952Z,80.12
2017-10-12T23:56:10.360Z,79.71
2017-10-12T23:58:37.784Z,79.43
